createdAt,value
2018-07-22T06:09:58.840Z,83.80
2018-07-22T06:12:26.951Z,83.46
2018-07-22T06:14:55.064Z,82.84
2018-07-22T06:17:23.183Z,82.70
2018-07-22T06:19:51.300Z,86.42
2018-07-22T06:22:19.386Z,86.50
2018-07-22T06:24:47.488Z,87.84
2018-07-22T06:27:15.604Z,86.66
2018-07-22T06:29:43.696Z,86.26
2018-07-22T06:32:12.117Z,83.84
2018-07-22T06:34:40.408Z,82.44
2018-07-22T06:37:08.555Z,79.64
2018-07-22T06:39:36.664Z,74.62
2018-07-22T06:42:04.777Z,71.78
2018-07-22T06:44:32.921Z,72.78
2018-07-22T06:47:01.027Z,74.14
2018-07-22T06:49:29.114Z,77.73
2018-07-22T06:51:57.216Z,79.22
2018-07-22T06:54:25.338Z,81.52
2018-07-22T06:56:53.436Z,79.89
2018-07-22T06:59:22.739Z,79.13
2018-07-22T07:01:50.839Z,82.37
2018-07-22T07:04:18.933Z,81.08
2018-07-22T07:06:47.043Z,81.96
2018-07-22T07:09:15.180Z,82.16
2018-07-22T07:11:43.293Z,81.62
2018-07-22T07:14:11.650Z,81.57
2018-07-22T07:16:39.762Z,81.62
2018-07-22T07:19:07.859Z,81.11
2018-07-22T07:21:35.958Z,80.16
2018-07-22T07:24:04.090Z,80.17
2018-07-22T07:26:32.196Z,80.63
2018-07-22T07:29:00.313Z,79.23
2018-07-22T07:31:28.411Z,78.30
2018-07-22T07:33:56.541Z,77.34
2018-07-22T07:36:24.932Z,76.89
2018-07-22T07:38:53.936Z,76.01
2018-07-22T07:41:22.048Z,77.14
2018-07-22T07:43:50.164Z,76.64
2018-07-22T07:46:18.262Z,74.97
2018-07-22T07:48:46.380Z,76.48
2018-07-22T07:51:14.481Z,75.73
2018-07-22T07:53:42.599Z,75.14
2018-07-22T07:56:10.700Z,74.62
2018-07-22T07:58:38.806Z,72.31
2018-07-22T08:01:06.903Z,73.21
2018-07-22T08:03:34.998Z,72.98
2018-07-22T08:06:03.105Z,70.52
2018-07-22T08:08:31.501Z,71.16
2018-07-22T08:10:59.607Z,71.40
2018-07-22T08:13:27.698Z,71.12
2018-07-22T08:15:56.436Z,69.69
2018-07-22T08:18:25.342Z,70.75
2018-07-22T08:20:53.684Z,70.42
2018-07-22T08:23:21.819Z,71.48
2018-07-22T08:25:50.004Z,70.90
2018-07-22T08:28:28.023Z,68.92
2018-07-22T08:30:56.133Z,69.09
2018-07-22T08:33:24.220Z,68.37
2018-07-22T08:35:52.312Z,70.32
2018-07-22T08:38:20.422Z,68.52
2018-07-22T08:40:48.519Z,68.96
2018-07-22T08:43:16.732Z,69.53
2018-07-22T08:45:44.831Z,68.67
2018-07-22T08:48:12.945Z,68.88
2018-07-22T08:50:41.035Z,67.58
2018-07-22T08:53:09.178Z,67.10
2018-07-22T08:55:37.237Z,66.42
2018-07-22T08:58:05.876Z,66.54
2018-07-22T09:00:34.214Z,67.64
2018-07-22T09:03:02.343Z,67.58
2018-07-22T09:05:30.443Z,67.78
2018-07-22T09:07:58.756Z,68.53
2018-07-22T09:10:27.460Z,67.24
2018-07-22T09:12:55.571Z,67.52
2018-07-22T09:15:23.678Z,67.03
2018-07-22T09:17:51.805Z,66.45
2018-07-22T09:20:20.216Z,67.12
2018-07-22T09:22:48.291Z,65.20
2018-07-22T09:25:16.400Z,64.31
2018-07-22T09:27:44.523Z,64.84
2018-07-22T09:30:12.632Z,66.64
2018-07-22T09:32:41.297Z,64.30
2018-07-22T09:35:09.403Z,65.84
2018-07-22T09:37:37.509Z,65.16
2018-07-22T09:40:05.647Z,65.94
2018-07-22T09:42:33.751Z,64.44
2018-07-22T09:45:01.864Z,65.22
2018-07-22T09:47:29.965Z,63.06
2018-07-22T09:49:58.415Z,62.55
2018-07-22T09:52:26.521Z,64.25
2018-07-22T09:54:54.619Z,62.35
2018-07-22T09:57:22.715Z,63.66
2018-07-22T09:59:50.838Z,60.94
2018-07-22T10:02:18.983Z,62.31
2018-07-22T10:04:47.143Z,61.54
2018-07-22T10:07:15.196Z,62.59
2018-07-22T10:09:43.376Z,61.93
2018-07-22T10:12:11.456Z,60.09
2018-07-22T10:14:39.637Z,60.45
2018-07-22T10:17:07.703Z,58.89
2018-07-22T10:19:35.785Z,58.62
2018-07-22T10:22:03.953Z,59.56
2018-07-22T10:24:32.184Z,60.54
2018-07-22T10:27:00.871Z,58.46
2018-07-22T10:29:28.963Z,59.22
2018-07-22T10:31:57.079Z,58.76
2018-07-22T10:34:25.183Z,61.15
2018-07-22T10:36:53.299Z,58.57
2018-07-22T10:39:21.412Z,57.86
2018-07-22T10:41:49.516Z,55.93
2018-07-22T10:44:17.654Z,56.91
2018-07-22T10:46:45.759Z,58.12
2018-07-22T10:49:13.864Z,55.74
2018-07-22T10:51:42.038Z,58.60
2018-07-22T10:54:10.478Z,58.36
2018-07-22T10:56:38.579Z,56.25
2018-07-22T10:59:06.692Z,56.02
2018-07-22T11:01:34.808Z,55.85
2018-07-22T11:04:02.933Z,57.16
2018-07-22T11:06:31.032Z,56.13
2018-07-22T11:08:59.140Z,56.27
2018-07-22T11:11:27.255Z,55.25
2018-07-22T11:13:55.335Z,55.43
2018-07-22T11:16:23.435Z,55.33
2018-07-22T11:18:51.527Z,56.39
2018-07-22T11:21:20.100Z,55.11
2018-07-22T11:23:48.788Z,55.56
2018-07-22T11:26:16.949Z,55.11
2018-07-22T11:28:45.077Z,57.14
2018-07-22T11:31:13.143Z,55.70
2018-07-22T11:33:41.259Z,54.45
2018-07-22T11:36:09.708Z,54.35
2018-07-22T11:38:37.779Z,55.26
2018-07-22T11:41:05.951Z,55.98
2018-07-22T11:43:34.494Z,54.88
2018-07-22T11:46:02.581Z,53.65
2018-07-22T11:48:30.693Z,54.81
2018-07-22T11:50:58.812Z,56.29
2018-07-22T11:53:26.908Z,54.37
2018-07-22T11:55:55.118Z,54.05
2018-07-22T11:58:23.177Z,55.40
2018-07-22T12:00:52.087Z,53.68
2018-07-22T12:03:20.602Z,52.09
2018-07-22T12:05:49.097Z,51.71
2018-07-22T12:08:17.262Z,52.24
2018-07-22T12:10:45.980Z,52.25
2018-07-22T12:13:14.148Z,51.51
2018-07-22T12:15:42.228Z,50.67
2018-07-22T12:18:10.338Z,51.15
2018-07-22T12:20:38.437Z,52.15
2018-07-22T12:23:06.583Z,53.16
2018-07-22T12:25:34.725Z,54.42
2018-07-22T12:28:02.894Z,53.49
2018-07-22T12:30:30.932Z,52.19
2018-07-22T12:32:59.060Z,50.96
2018-07-22T12:35:27.176Z,49.05
2018-07-22T12:37:55.394Z,50.65
2018-07-22T12:40:23.547Z,52.00
2018-07-22T12:42:51.640Z,50.60
2018-07-22T12:45:19.743Z,50.53
2018-07-22T12:47:47.860Z,50.02
2018-07-22T12:50:15.966Z,50.75
2018-07-22T12:52:44.375Z,52.34
2018-07-22T12:55:12.560Z,53.94
2018-07-22T12:57:40.735Z,52.91
2018-07-22T13:00:08.842Z,51.50
2018-07-22T13:02:37.228Z,53.04
2018-07-22T13:05:05.809Z,52.11
2018-07-22T13:07:33.891Z,52.14
2018-07-22T13:10:02.043Z,52.51
2018-07-22T13:12:30.122Z,54.59
2018-07-22T13:14:58.279Z,57.06
2018-07-22T14:42:49.644Z,96.27
2018-07-22T14:45:18.122Z,96.20
2018-07-22T14:47:46.236Z,95.80
2018-07-22T14:50:14.345Z,96.61
2018-07-22T14:52:42.508Z,97.52
2018-07-22T14:55:10.655Z,97.87
2018-07-22T14:57:38.816Z,98.80
2018-07-22T15:00:07.501Z,99.87
2018-07-22T15:02:35.613Z,100.00
2018-07-22T15:05:03.780Z,100.00
2018-07-22T15:07:32.134Z,100.00
2018-07-22T15:10:00.239Z,100.00
2018-07-22T15:12:28.352Z,100.00
2018-07-22T15:14:56.467Z,100.00
2018-07-22T15:17:24.576Z,100.00
2018-07-22T15:19:52.708Z,100.00
2018-07-22T15:22:21.655Z,100.00
2018-07-22T15:24:49.774Z,98.58
2018-07-22T15:27:18.077Z,98.63
2018-07-22T15:29:46.207Z,97.34
2018-07-22T15:32:14.336Z,97.10
2018-07-22T15:34:42.705Z,96.73
2018-07-22T15:37:12.081Z,96.28
2018-07-22T15:39:40.167Z,94.45
2018-07-22T15:42:08.295Z,93.26
2018-07-22T15:44:36.427Z,92.24
2018-07-22T15:47:04.577Z,91.03
2018-07-22T15:49:32.694Z,90.33
2018-07-22T15:52:00.806Z,90.17
2018-07-22T15:54:28.924Z,90.22
2018-07-22T15:56:57.067Z,88.73
2018-07-22T15:59:25.185Z,90.43
2018-07-22T16:01:53.304Z,90.79
2018-07-22T16:04:21.662Z,91.55
2018-07-22T16:06:49.792Z,91.09
2018-07-22T16:09:18.048Z,89.83
2018-07-22T16:11:46.163Z,89.51
2018-07-22T16:14:14.319Z,87.72
2018-07-22T16:16:42.821Z,89.16
2018-07-22T16:19:10.928Z,89.11
2018-07-22T16:21:39.072Z,90.65
2018-07-22T16:24:07.185Z,90.81
2018-07-22T16:26:35.291Z,91.77
2018-07-22T16:29:03.404Z,92.89
2018-07-22T16:31:31.517Z,94.19
2018-07-22T16:33:59.601Z,94.42
2018-07-22T16:42:34.129Z,96.93
2018-07-22T16:45:02.351Z,97.93
2018-07-22T16:47:30.756Z,99.04
2018-07-22T16:49:58.877Z,98.95
2018-07-22T16:52:27.776Z,98.93
2018-07-22T16:54:55.862Z,97.97
2018-07-22T16:57:24.991Z,98.89
2018-07-22T16:59:53.089Z,98.87
2018-07-22T17:02:21.191Z,98.52
2018-07-22T17:04:49.538Z,99.07
2018-07-22T17:07:18.234Z,98.91
2018-07-22T17:09:46.311Z,98.61
2018-07-22T17:12:14.752Z,98.46
2018-07-22T17:14:42.915Z,98.45
2018-07-22T17:17:13.038Z,98.71
2018-07-22T17:19:41.274Z,98.90
2018-07-22T17:22:09.443Z,98.52
2018-07-22T17:24:38.600Z,99.87
2018-07-22T17:27:06.677Z,99.75
2018-07-22T17:29:34.800Z,99.90
2018-07-22T17:34:55.679Z,99.32
2018-07-22T17:37:27.527Z,99.34
2018-07-22T17:39:58.767Z,98.05
2018-07-22T17:42:27.875Z,98.24
2018-07-22T17:44:56.973Z,98.29
2018-07-22T17:47:25.454Z,98.12
2018-07-22T17:49:53.884Z,99.09
2018-07-22T17:52:22.004Z,98.55
2018-07-22T17:54:50.156Z,99.54
2018-07-22T17:57:18.328Z,99.75
2018-07-22T17:59:46.734Z,98.47
2018-07-22T18:05:18.998Z,96.76
2018-07-22T18:07:47.170Z,97.64
2018-07-22T18:10:15.304Z,96.73
2018-07-22T18:12:43.406Z,96.42
2018-07-22T18:15:11.532Z,95.57
2018-07-22T18:17:39.921Z,95.45
2018-07-22T18:20:08.067Z,96.01
2018-07-22T18:22:36.171Z,96.24
2018-07-22T18:25:04.281Z,97.42
2018-07-22T18:27:33.361Z,97.32
2018-07-22T18:30:01.487Z,97.80
2018-07-22T18:32:29.580Z,97.61
2018-07-22T18:34:57.683Z,98.14
2018-07-22T18:37:25.831Z,98.83
2018-07-22T18:39:53.879Z,98.45
2018-07-22T18:42:21.991Z,97.94
2018-07-22T18:44:50.068Z,96.95
2018-07-22T18:47:18.260Z,97.60
2018-07-22T18:49:47.114Z,98.10
2018-07-22T18:52:15.164Z,97.64
2018-07-22T18:54:43.280Z,98.11
2018-07-22T18:57:11.913Z,98.60
2018-07-22T18:59:40.031Z,99.58
2018-07-22T19:02:08.135Z,98.87
2018-07-22T19:04:36.249Z,99.13
2018-07-22T19:07:04.364Z,98.76
2018-07-22T19:09:32.467Z,99.06
2018-07-22T19:12:00.561Z,98.56
2018-07-22T19:14:28.667Z,98.92
2018-07-22T19:16:56.772Z,99.22
2018-07-22T19:19:25.004Z,98.95
2018-07-22T19:21:53.118Z,99.30
2018-07-22T19:24:21.220Z,99.14
2018-07-22T19:26:49.303Z,99.53
2018-07-22T19:29:17.658Z,99.62
2018-07-22T19:31:45.759Z,99.75
2018-07-22T19:34:13.875Z,100.00
2018-07-22T19:36:41.979Z,100.00
2018-07-22T19:39:10.683Z,100.00
2018-07-22T19:41:38.978Z,100.00
2018-07-22T19:44:07.692Z,100.00
2018-07-22T19:46:35.804Z,100.00
2018-07-22T19:49:03.943Z,100.00
2018-07-22T19:51:32.051Z,100.00
2018-07-22T19:54:00.148Z,100.00
2018-07-22T19:56:28.263Z,100.00
2018-07-22T19:58:56.360Z,100.00
2018-07-22T20:01:24.489Z,100.00
2018-07-22T20:03:52.641Z,100.00
2018-07-22T20:06:20.835Z,100.00
2018-07-22T20:08:48.955Z,100.00
2018-07-22T20:11:17.098Z,100.00
2018-07-22T20:13:45.192Z,100.00
2018-07-22T20:16:13.299Z,100.00
2018-07-22T20:18:41.390Z,100.00
2018-07-22T20:21:09.504Z,100.00
2018-07-22T20:23:37.602Z,100.00
2018-07-22T20:26:05.768Z,100.00
2018-07-22T20:28:33.875Z,100.00
2018-07-22T20:31:01.999Z,100.00
2018-07-22T20:33:30.139Z,100.00
2018-07-22T20:35:58.256Z,100.00
2018-07-22T20:38:26.358Z,100.00
2018-07-22T20:40:54.451Z,100.00
2018-07-22T20:43:22.552Z,100.00
2018-07-22T20:45:57.347Z,100.00
2018-07-22T20:48:25.447Z,100.00
2018-07-22T20:50:53.558Z,100.00
2018-07-22T20:53:22.698Z,100.00
2018-07-22T20:55:50.808Z,100.00
2018-07-22T20:58:18.903Z,100.00
2018-07-22T21:00:47.016Z,100.00
2018-07-22T21:03:15.142Z,100.00
2018-07-22T21:05:43.573Z,100.00
2018-07-22T21:08:11.752Z,100.00
2018-07-22T21:10:40.420Z,100.00
2018-07-22T21:13:18.950Z,100.00
2018-07-22T21:15:47.132Z,100.00
2018-07-22T21:18:15.296Z,100.00
2018-07-22T21:20:43.433Z,100.00
2018-07-22T21:23:11.609Z,100.00
2018-07-22T21:25:39.710Z,100.00
2018-07-22T21:28:07.887Z,100.00
2018-07-22T21:30:35.992Z,100.00
2018-07-22T21:33:04.388Z,100.00
2018-07-22T21:35:32.509Z,100.00
2018-07-22T21:38:00.638Z,100.00
2018-07-22T21:40:28.765Z,100.00
2018-07-22T21:42:56.858Z,100.00
2018-07-22T21:45:24.956Z,100.00
2018-07-22T21:47:53.084Z,100.00
2018-07-22T21:50:21.835Z,100.00
2018-07-22T21:52:50.344Z,100.00
2018-07-22T21:55:18.647Z,100.00
2018-07-22T21:57:46.804Z,100.00
